sensor_id;sensor_type;location;lat;lon;timestamp;P1;durP1;ratioP1;P2;durP2;ratioP2
74415;SDS011;62850;42.428;25.618;2023-02-23T00:01:25;10.43;;;4.90;;
74415;SDS011;62850;42.428;25.618;2023-02-23T00:03:55;10.88;;;4.63;;
74415;SDS011;62850;42.428;25.618;2023-02-23T00:06:23;10.07;;;4.95;;
74415;SDS011;62850;42.428;25.618;2023-02-23T00:08:53;10.57;;;4.63;;
74415;SDS011;62850;42.428;25.618;2023-02-23T00:11:19;9.48;;;4.10;;
74415;SDS011;62850;42.428;25.618;2023-02-23T00:13:46;7.80;;;3.67;;
74415;SDS011;62850;42.428;25.618;2023-02-23T00:16:15;10.23;;;3.95;;
74415;SDS011;62850;42.428;25.618;2023-02-23T00:18:44;9.82;;;3.83;;
74415;SDS011;62850;42.428;25.618;2023-02-23T00:21:16;6.70;;;3.78;;
74415;SDS011;62850;42.428;25.618;2023-02-23T00:23:47;9.68;;;3.47;;
74415;SDS011;62850;42.428;25.618;2023-02-23T00:26:15;10.40;;;4.40;;
74415;SDS011;62850;42.428;25.618;2023-02-23T00:28:44;10.88;;;4.32;;
74415;SDS011;62850;42.428;25.618;2023-02-23T00:31:11;12.05;;;4.68;;
74415;SDS011;62850;42.428;25.618;2023-02-23T00:33:38;10.13;;;4.20;;
74415;SDS011;62850;42.428;25.618;2023-02-23T00:36:06;12.50;;;4.15;;
74415;SDS011;62850;42.428;25.618;2023-02-23T00:38:37;8.32;;;4.20;;
74415;SDS011;62850;42.428;25.618;2023-02-23T00:41:07;10.00;;;4.60;;
74415;SDS011;62850;42.428;25.618;2023-02-23T00:43:38;9.25;;;4.15;;
74415;SDS011;62850;42.428;25.618;2023-02-23T00:46:12;9.27;;;4.32;;
74415;SDS011;62850;42.428;25.618;2023-02-23T00:48:40;10.48;;;4.82;;
74415;SDS011;62850;42.428;25.618;2023-02-23T00:51:08;10.43;;;4.13;;
74415;SDS011;62850;42.428;25.618;2023-02-23T00:53:34;10.55;;;4.00;;
74415;SDS011;62850;42.428;25.618;2023-02-23T00:55:59;13.82;;;4.15;;
74415;SDS011;62850;42.428;25.618;2023-02-23T00:58:25;10.10;;;4.13;;
74415;SDS011;62850;42.428;25.618;2023-02-23T01:00:51;10.57;;;4.32;;
74415;SDS011;62850;42.428;25.618;2023-02-23T01:03:17;9.18;;;4.25;;
74415;SDS011;62850;42.428;25.618;2023-02-23T01:05:43;9.65;;;4.35;;
74415;SDS011;62850;42.428;25.618;2023-02-23T01:08:10;7.70;;;4.28;;
74415;SDS011;62850;42.428;25.618;2023-02-23T01:10:40;9.35;;;4.20;;
74415;SDS011;62850;42.428;25.618;2023-02-23T01:13:07;14.10;;;4.38;;
74415;SDS011;62850;42.428;25.618;2023-02-23T01:15:34;7.32;;;3.90;;
74415;SDS011;62850;42.428;25.618;2023-02-23T01:18:06;7.30;;;3.60;;
74415;SDS011;62850;42.428;25.618;2023-02-23T01:20:33;8.68;;;3.65;;
74415;SDS011;62850;42.428;25.618;2023-02-23T01:23:00;10.35;;;3.63;;
74415;SDS011;62850;42.428;25.618;2023-02-23T01:25:27;8.00;;;4.10;;
74415;SDS011;62850;42.428;25.618;2023-02-23T01:27:54;9.05;;;3.75;;
74415;SDS011;62850;42.428;25.618;2023-02-23T01:30:20;8.13;;;3.95;;
74415;SDS011;62850;42.428;25.618;2023-02-23T01:32:46;9.18;;;3.70;;
74415;SDS011;62850;42.428;25.618;2023-02-23T01:35:13;8.48;;;3.80;;
74415;SDS011;62850;42.428;25.618;2023-02-23T01:37:41;11.55;;;3.45;;
74415;SDS011;62850;42.428;25.618;2023-02-23T01:40:12;9.00;;;3.33;;
74415;SDS011;62850;42.428;25.618;2023-02-23T01:42:52;7.35;;;3.58;;
74415;SDS011;62850;42.428;25.618;2023-02-23T01:48:04;10.57;;;3.75;;
74415;SDS011;62850;42.428;25.618;2023-02-23T01:53:34;8.82;;;4.28;;
74415;SDS011;62850;42.428;25.618;2023-02-23T01:56:07;7.57;;;3.92;;
74415;SDS011;62850;42.428;25.618;2023-02-23T01:58:36;8.20;;;3.70;;
74415;SDS011;62850;42.428;25.618;2023-02-23T02:01:03;7.78;;;3.80;;
74415;SDS011;62850;42.428;25.618;2023-02-23T02:03:36;9.25;;;4.30;;
74415;SDS011;62850;42.428;25.618;2023-02-23T02:06:05;8.35;;;3.72;;
74415;SDS011;62850;42.428;25.618;2023-02-23T02:08:34;7.78;;;3.72;;
74415;SDS011;62850;42.428;25.618;2023-02-23T02:11:12;9.98;;;4.15;;
74415;SDS011;62850;42.428;25.618;2023-02-23T02:13:59;8.45;;;3.83;;
74415;SDS011;62850;42.428;25.618;2023-02-23T02:19:11;10.05;;;4.38;;
74415;SDS011;62850;42.428;25.618;2023-02-23T02:21:55;7.75;;;3.83;;
74415;SDS011;62850;42.428;25.618;2023-02-23T02:27:17;10.40;;;4.15;;
74415;SDS011;62850;42.428;25.618;2023-02-23T02:41:19;10.50;;;4.00;;
74415;SDS011;62850;42.428;25.618;2023-02-23T02:43:59;11.07;;;4.25;;
74415;SDS011;62850;42.428;25.618;2023-02-23T02:46:39;12.80;;;4.95;;
74415;SDS011;62850;42.428;25.618;2023-02-23T02:52:18;13.02;;;4.70;;
74415;SDS011;62850;42.428;25.618;2023-02-23T02:54:52;8.82;;;4.05;;
74415;SDS011;62850;42.428;25.618;2023-02-23T02:57:26;10.68;;;4.90;;
74415;SDS011;62850;42.428;25.618;2023-02-23T02:59:55;8.38;;;3.63;;
74415;SDS011;62850;42.428;25.618;2023-02-23T03:02:41;8.85;;;2.88;;
74415;SDS011;62850;42.428;25.618;2023-02-23T03:05:27;8.98;;;3.80;;
74415;SDS011;62850;42.428;25.618;2023-02-23T03:11:10;6.68;;;2.72;;
74415;SDS011;62850;42.428;25.618;2023-02-23T03:17:41;7.43;;;2.70;;
74415;SDS011;62850;42.428;25.618;2023-02-23T03:20:29;8.50;;;2.60;;
74415;SDS011;62850;42.428;25.618;2023-02-23T03:23:17;7.72;;;2.63;;
74415;SDS011;62850;42.428;25.618;2023-02-23T03:26:11;9.48;;;3.05;;
74415;SDS011;62850;42.428;25.618;2023-02-23T03:29:07;6.93;;;2.90;;
74415;SDS011;62850;42.428;25.618;2023-02-23T03:32:09;6.47;;;2.60;;
74415;SDS011;62850;42.428;25.618;2023-02-23T03:35:08;5.40;;;2.38;;
74415;SDS011;62850;42.428;25.618;2023-02-23T03:41:05;6.13;;;2.50;;
74415;SDS011;62850;42.428;25.618;2023-02-23T03:43:53;10.00;;;3.17;;
74415;SDS011;62850;42.428;25.618;2023-02-23T03:46:41;10.38;;;3.38;;
74415;SDS011;62850;42.428;25.618;2023-02-23T03:49:28;6.43;;;2.65;;
74415;SDS011;62850;42.428;25.618;2023-02-23T03:52:19;8.55;;;2.92;;
74415;SDS011;62850;42.428;25.618;2023-02-23T03:55:12;7.45;;;2.85;;
74415;SDS011;62850;42.428;25.618;2023-02-23T03:58:04;9.35;;;2.92;;
74415;SDS011;62850;42.428;25.618;2023-02-23T04:03:38;7.38;;;2.88;;
74415;SDS011;62850;42.428;25.618;2023-02-23T04:06:25;8.85;;;2.45;;
74415;SDS011;62850;42.428;25.618;2023-02-23T04:09:12;6.20;;;2.40;;
74415;SDS011;62850;42.428;25.618;2023-02-23T04:17:20;5.60;;;2.40;;
74415;SDS011;62850;42.428;25.618;2023-02-23T04:22:17;5.13;;;2.42;;
74415;SDS011;62850;42.428;25.618;2023-02-23T04:24:43;7.72;;;2.85;;
74415;SDS011;62850;42.428;25.618;2023-02-23T04:27:10;7.63;;;2.65;;
74415;SDS011;62850;42.428;25.618;2023-02-23T04:29:36;6.78;;;2.85;;
74415;SDS011;62850;42.428;25.618;2023-02-23T04:32:02;10.32;;;2.42;;
74415;SDS011;62850;42.428;25.618;2023-02-23T04:34:28;8.65;;;2.78;;
74415;SDS011;62850;42.428;25.618;2023-02-23T04:36:54;9.73;;;3.03;;
74415;SDS011;62850;42.428;25.618;2023-02-23T04:39:20;8.18;;;3.00;;
74415;SDS011;62850;42.428;25.618;2023-02-23T04:41:46;8.68;;;3.28;;
74415;SDS011;62850;42.428;25.618;2023-02-23T04:44:15;15.05;;;3.30;;
74415;SDS011;62850;42.428;25.618;2023-02-23T04:46:41;9.65;;;3.15;;
74415;SDS011;62850;42.428;25.618;2023-02-23T04:49:07;11.60;;;4.00;;
74415;SDS011;62850;42.428;25.618;2023-02-23T04:51:33;8.13;;;3.20;;
74415;SDS011;62850;42.428;25.618;2023-02-23T04:54:00;9.30;;;3.65;;
74415;SDS011;62850;42.428;25.618;2023-02-23T04:56:28;7.82;;;3.08;;
74415;SDS011;62850;42.428;25.618;2023-02-23T04:58:54;7.47;;;3.25;;
74415;SDS011;62850;42.428;25.618;2023-02-23T05:01:20;6.70;;;3.38;;
74415;SDS011;62850;42.428;25.618;2023-02-23T05:03:49;8.57;;;3.70;;
74415;SDS011;62850;42.428;25.618;2023-02-23T05:06:16;10.35;;;3.67;;
74415;SDS011;62850;42.428;25.618;2023-02-23T05:08:42;8.98;;;3.22;;
74415;SDS011;62850;42.428;25.618;2023-02-23T05:11:09;10.32;;;2.83;;
74415;SDS011;62850;42.428;25.618;2023-02-23T05:13:35;10.23;;;3.40;;
74415;SDS011;62850;42.428;25.618;2023-02-23T05:16:01;7.45;;;3.15;;
74415;SDS011;62850;42.428;25.618;2023-02-23T05:18:27;9.98;;;3.80;;
74415;SDS011;62850;42.428;25.618;2023-02-23T05:20:52;11.05;;;4.22;;
74415;SDS011;62850;42.428;25.618;2023-02-23T05:23:18;6.60;;;3.65;;
74415;SDS011;62850;42.428;25.618;2023-02-23T05:25:45;7.38;;;3.08;;
74415;SDS011;62850;42.428;25.618;2023-02-23T05:28:11;9.60;;;3.35;;
74415;SDS011;62850;42.428;25.618;2023-02-23T05:30:37;16.35;;;3.53;;
74415;SDS011;62850;42.428;25.618;2023-02-23T05:33:03;8.43;;;3.47;;
74415;SDS011;62850;42.428;25.618;2023-02-23T05:35:29;10.15;;;3.47;;
74415;SDS011;62850;42.428;25.618;2023-02-23T05:37:56;9.55;;;3.75;;
74415;SDS011;62850;42.428;25.618;2023-02-23T05:40:22;8.95;;;3.50;;
74415;SDS011;62850;42.428;25.618;2023-02-23T05:42:48;11.95;;;3.78;;
74415;SDS011;62850;42.428;25.618;2023-02-23T05:45:14;8.93;;;3.67;;
74415;SDS011;62850;42.428;25.618;2023-02-23T05:47:40;16.50;;;3.50;;
74415;SDS011;62850;42.428;25.618;2023-02-23T05:50:07;9.50;;;3.50;;
74415;SDS011;62850;42.428;25.618;2023-02-23T05:52:38;11.02;;;3.67;;
74415;SDS011;62850;42.428;25.618;2023-02-23T05:55:05;8.18;;;2.97;;
74415;SDS011;62850;42.428;25.618;2023-02-23T05:57:32;9.70;;;2.92;;
74415;SDS011;62850;42.428;25.618;2023-02-23T05:59:58;8.63;;;2.78;;
74415;SDS011;62850;42.428;25.618;2023-02-23T06:02:24;8.23;;;3.10;;
74415;SDS011;62850;42.428;25.618;2023-02-23T06:04:52;6.63;;;2.80;;
74415;SDS011;62850;42.428;25.618;2023-02-23T06:07:19;6.80;;;2.80;;
74415;SDS011;62850;42.428;25.618;2023-02-23T06:09:45;8.77;;;2.45;;
74415;SDS011;62850;42.428;25.618;2023-02-23T06:12:11;5.03;;;2.40;;
74415;SDS011;62850;42.428;25.618;2023-02-23T06:14:37;10.90;;;2.50;;
74415;SDS011;62850;42.428;25.618;2023-02-23T06:17:02;9.02;;;2.38;;
74415;SDS011;62850;42.428;25.618;2023-02-23T06:19:30;9.70;;;2.83;;
74415;SDS011;62850;42.428;25.618;2023-02-23T06:21:57;5.97;;;2.40;;
74415;SDS011;62850;42.428;25.618;2023-02-23T06:24:23;8.13;;;2.58;;
74415;SDS011;62850;42.428;25.618;2023-02-23T06:26:49;6.00;;;2.03;;
74415;SDS011;62850;42.428;25.618;2023-02-23T06:29:15;7.80;;;2.67;;
74415;SDS011;62850;42.428;25.618;2023-02-23T06:31:42;18.25;;;2.95;;
74415;SDS011;62850;42.428;25.618;2023-02-23T06:34:08;8.57;;;2.67;;
74415;SDS011;62850;42.428;25.618;2023-02-23T06:36:34;6.38;;;2.28;;
74415;SDS011;62850;42.428;25.618;2023-02-23T06:39:01;7.18;;;2.65;;
74415;SDS011;62850;42.428;25.618;2023-02-23T06:41:27;8.23;;;2.75;;
74415;SDS011;62850;42.428;25.618;2023-02-23T06:43:54;9.68;;;2.67;;
74415;SDS011;62850;42.428;25.618;2023-02-23T06:46:20;11.85;;;3.25;;
74415;SDS011;62850;42.428;25.618;2023-02-23T06:48:47;9.52;;;2.72;;
74415;SDS011;62850;42.428;25.618;2023-02-23T06:51:13;7.28;;;2.80;;
74415;SDS011;62850;42.428;25.618;2023-02-23T06:53:40;11.48;;;2.28;;
74415;SDS011;62850;42.428;25.618;2023-02-23T06:56:05;11.05;;;2.78;;
74415;SDS011;62850;42.428;25.618;2023-02-23T06:58:31;9.65;;;2.45;;
74415;SDS011;62850;42.428;25.618;2023-02-23T07:00:58;7.63;;;2.38;;
74415;SDS011;62850;42.428;25.618;2023-02-23T07:03:26;10.05;;;3.08;;
74415;SDS011;62850;42.428;25.618;2023-02-23T07:05:52;7.97;;;2.53;;
74415;SDS011;62850;42.428;25.618;2023-02-23T07:08:18;7.25;;;2.60;;
74415;SDS011;62850;42.428;25.618;2023-02-23T07:10:44;10.52;;;2.50;;
74415;SDS011;62850;42.428;25.618;2023-02-23T07:13:11;7.15;;;2.40;;
74415;SDS011;62850;42.428;25.618;2023-02-23T07:15:38;6.95;;;2.78;;
74415;SDS011;62850;42.428;25.618;2023-02-23T07:18:04;6.38;;;2.78;;
74415;SDS011;62850;42.428;25.618;2023-02-23T07:20:31;13.73;;;3.22;;
74415;SDS011;62850;42.428;25.618;2023-02-23T07:22:58;24.70;;;3.70;;
74415;SDS011;62850;42.428;25.618;2023-02-23T07:25:27;10.93;;;3.30;;
74415;SDS011;62850;42.428;25.618;2023-02-23T07:27:54;8.73;;;2.83;;
74415;SDS011;62850;42.428;25.618;2023-02-23T07:30:20;8.98;;;2.70;;
74415;SDS011;62850;42.428;25.618;2023-02-23T07:32:49;8.82;;;3.20;;
74415;SDS011;62850;42.428;25.618;2023-02-23T07:35:15;6.07;;;3.13;;
74415;SDS011;62850;42.428;25.618;2023-02-23T07:37:42;9.50;;;2.72;;
74415;SDS011;62850;42.428;25.618;2023-02-23T07:40:09;8.65;;;2.83;;
74415;SDS011;62850;42.428;25.618;2023-02-23T07:42:35;9.18;;;2.70;;
74415;SDS011;62850;42.428;25.618;2023-02-23T07:45:01;9.63;;;2.80;;
74415;SDS011;62850;42.428;25.618;2023-02-23T07:47:27;7.85;;;2.75;;
74415;SDS011;62850;42.428;25.618;2023-02-23T07:50:00;9.32;;;2.53;;
74415;SDS011;62850;42.428;25.618;2023-02-23T07:54:53;7.72;;;2.78;;
74415;SDS011;62850;42.428;25.618;2023-02-23T07:57:19;8.75;;;3.22;;
74415;SDS011;62850;42.428;25.618;2023-02-23T07:59:46;10.07;;;2.83;;
74415;SDS011;62850;42.428;25.618;2023-02-23T08:02:13;7.25;;;2.88;;
74415;SDS011;62850;42.428;25.618;2023-02-23T08:04:39;8.52;;;2.70;;
74415;SDS011;62850;42.428;25.618;2023-02-23T08:07:06;8.82;;;3.03;;
74415;SDS011;62850;42.428;25.618;2023-02-23T08:09:32;13.32;;;3.17;;
74415;SDS011;62850;42.428;25.618;2023-02-23T08:11:59;9.13;;;2.78;;
74415;SDS011;62850;42.428;25.618;2023-02-23T08:14:27;9.40;;;2.90;;
74415;SDS011;62850;42.428;25.618;2023-02-23T08:16:53;21.65;;;4.55;;
74415;SDS011;62850;42.428;25.618;2023-02-23T08:19:19;10.45;;;3.40;;
74415;SDS011;62850;42.428;25.618;2023-02-23T08:21:48;7.90;;;3.15;;
74415;SDS011;62850;42.428;25.618;2023-02-23T08:24:15;10.63;;;3.95;;
74415;SDS011;62850;42.428;25.618;2023-02-23T08:26:41;12.23;;;3.80;;
74415;SDS011;62850;42.428;25.618;2023-02-23T08:29:07;15.15;;;4.85;;
74415;SDS011;62850;42.428;25.618;2023-02-23T08:31:34;11.38;;;3.90;;
74415;SDS011;62850;42.428;25.618;2023-02-23T08:34:00;14.02;;;4.03;;
74415;SDS011;62850;42.428;25.618;2023-02-23T08:36:26;8.90;;;3.55;;
74415;SDS011;62850;42.428;25.618;2023-02-23T08:38:53;8.98;;;4.22;;
74415;SDS011;62850;42.428;25.618;2023-02-23T08:41:19;12.27;;;4.40;;
74415;SDS011;62850;42.428;25.618;2023-02-23T08:43:45;9.95;;;4.47;;
74415;SDS011;62850;42.428;25.618;2023-02-23T08:46:12;10.65;;;4.03;;
74415;SDS011;62850;42.428;25.618;2023-02-23T08:48:37;10.60;;;4.28;;
74415;SDS011;62850;42.428;25.618;2023-02-23T08:51:05;15.50;;;5.15;;
74415;SDS011;62850;42.428;25.618;2023-02-23T08:53:31;11.95;;;4.65;;
74415;SDS011;62850;42.428;25.618;2023-02-23T08:55:58;9.95;;;4.57;;
74415;SDS011;62850;42.428;25.618;2023-02-23T08:58:27;12.52;;;4.35;;
74415;SDS011;62850;42.428;25.618;2023-02-23T09:00:54;14.75;;;4.40;;
74415;SDS011;62850;42.428;25.618;2023-02-23T09:03:21;9.02;;;4.38;;
74415;SDS011;62850;42.428;25.618;2023-02-23T09:05:47;12.07;;;4.97;;
74415;SDS011;62850;42.428;25.618;2023-02-23T09:08:14;13.30;;;4.95;;
74415;SDS011;62850;42.428;25.618;2023-02-23T09:10:40;15.52;;;5.35;;
74415;SDS011;62850;42.428;25.618;2023-02-23T09:13:08;8.98;;;4.55;;
74415;SDS011;62850;42.428;25.618;2023-02-23T09:15:36;14.13;;;5.05;;
74415;SDS011;62850;42.428;25.618;2023-02-23T09:18:05;13.30;;;4.53;;
74415;SDS011;62850;42.428;25.618;2023-02-23T09:20:32;10.27;;;4.03;;
74415;SDS011;62850;42.428;25.618;2023-02-23T09:22:58;11.50;;;4.43;;
74415;SDS011;62850;42.428;25.618;2023-02-23T09:25:24;13.52;;;5.20;;
74415;SDS011;62850;42.428;25.618;2023-02-23T09:27:53;18.73;;;6.50;;
74415;SDS011;62850;42.428;25.618;2023-02-23T09:30:25;14.85;;;6.35;;
74415;SDS011;62850;42.428;25.618;2023-02-23T09:32:52;12.30;;;5.35;;
74415;SDS011;62850;42.428;25.618;2023-02-23T09:35:20;15.00;;;5.75;;
74415;SDS011;62850;42.428;25.618;2023-02-23T09:37:52;14.25;;;5.30;;
74415;SDS011;62850;42.428;25.618;2023-02-23T09:40:20;18.15;;;5.28;;
74415;SDS011;62850;42.428;25.618;2023-02-23T09:45:41;19.45;;;5.28;;
74415;SDS011;62850;42.428;25.618;2023-02-23T09:50:43;16.25;;;6.75;;
74415;SDS011;62850;42.428;25.618;2023-02-23T09:53:23;15.48;;;5.78;;
74415;SDS011;62850;42.428;25.618;2023-02-23T09:56:06;11.82;;;5.57;;
74415;SDS011;62850;42.428;25.618;2023-02-23T09:58:37;15.02;;;6.03;;
74415;SDS011;62850;42.428;25.618;2023-02-23T10:03:48;13.65;;;5.93;;
74415;SDS011;62850;42.428;25.618;2023-02-23T10:06:18;13.18;;;6.38;;
74415;SDS011;62850;42.428;25.618;2023-02-23T10:08:51;15.07;;;6.20;;
74415;SDS011;62850;42.428;25.618;2023-02-23T10:11:51;12.50;;;6.18;;
74415;SDS011;62850;42.428;25.618;2023-02-23T10:20:12;18.15;;;6.75;;
74415;SDS011;62850;42.428;25.618;2023-02-23T10:22:43;15.27;;;6.13;;
74415;SDS011;62850;42.428;25.618;2023-02-23T10:25:13;14.48;;;6.25;;
74415;SDS011;62850;42.428;25.618;2023-02-23T10:27:44;12.68;;;5.40;;
74415;SDS011;62850;42.428;25.618;2023-02-23T10:32:51;12.02;;;5.70;;
74415;SDS011;62850;42.428;25.618;2023-02-23T10:35:27;14.43;;;6.65;;
74415;SDS011;62850;42.428;25.618;2023-02-23T10:37:54;13.75;;;6.00;;
74415;SDS011;62850;42.428;25.618;2023-02-23T10:40:24;14.20;;;5.93;;
74415;SDS011;62850;42.428;25.618;2023-02-23T10:42:53;11.45;;;5.70;;
74415;SDS011;62850;42.428;25.618;2023-02-23T10:45:22;17.83;;;6.35;;
74415;SDS011;62850;42.428;25.618;2023-02-23T10:47:54;13.38;;;6.10;;
74415;SDS011;62850;42.428;25.618;2023-02-23T10:50:23;12.13;;;5.88;;
74415;SDS011;62850;42.428;25.618;2023-02-23T10:52:55;18.17;;;6.07;;
74415;SDS011;62850;42.428;25.618;2023-02-23T10:55:29;13.00;;;6.05;;
74415;SDS011;62850;42.428;25.618;2023-02-23T10:58:09;13.30;;;5.97;;
74415;SDS011;62850;42.428;25.618;2023-02-23T11:00:40;13.95;;;5.45;;
74415;SDS011;62850;42.428;25.618;2023-02-23T11:03:17;16.75;;;6.50;;
74415;SDS011;62850;42.428;25.618;2023-02-23T11:05:48;13.10;;;6.40;;
74415;SDS011;62850;42.428;25.618;2023-02-23T11:11:05;14.88;;;7.18;;
74415;SDS011;62850;42.428;25.618;2023-02-23T11:16:18;15.18;;;6.68;;
74415;SDS011;62850;42.428;25.618;2023-02-23T11:21:31;17.08;;;7.85;;
74415;SDS011;62850;42.428;25.618;2023-02-23T11:24:15;16.42;;;8.07;;
74415;SDS011;62850;42.428;25.618;2023-02-23T11:26:43;16.05;;;7.75;;
74415;SDS011;62850;42.428;25.618;2023-02-23T11:32:02;16.23;;;8.25;;
74415;SDS011;62850;42.428;25.618;2023-02-23T11:34:33;17.05;;;7.93;;
74415;SDS011;62850;42.428;25.618;2023-02-23T11:37:18;20.15;;;8.00;;
74415;SDS011;62850;42.428;25.618;2023-02-23T11:42:20;14.93;;;8.05;;
74415;SDS011;62850;42.428;25.618;2023-02-23T11:47:36;19.60;;;8.57;;
74415;SDS011;62850;42.428;25.618;2023-02-23T11:50:04;18.17;;;9.02;;
74415;SDS011;62850;42.428;25.618;2023-02-23T11:52:31;22.42;;;8.68;;
74415;SDS011;62850;42.428;25.618;2023-02-23T11:54:58;17.67;;;8.45;;
74415;SDS011;62850;42.428;25.618;2023-02-23T11:57:30;15.32;;;7.95;;
74415;SDS011;62850;42.428;25.618;2023-02-23T11:59:58;17.15;;;7.55;;
74415;SDS011;62850;42.428;25.618;2023-02-23T12:02:29;15.00;;;7.22;;
74415;SDS011;62850;42.428;25.618;2023-02-23T12:05:15;15.80;;;8.00;;
74415;SDS011;62850;42.428;25.618;2023-02-23T12:07:54;18.15;;;8.70;;
74415;SDS011;62850;42.428;25.618;2023-02-23T12:22:12;18.77;;;7.65;;
74415;SDS011;62850;42.428;25.618;2023-02-23T12:24:46;16.67;;;7.82;;
74415;SDS011;62850;42.428;25.618;2023-02-23T12:27:33;14.75;;;7.03;;
74415;SDS011;62850;42.428;25.618;2023-02-23T12:32:55;17.05;;;7.43;;
74415;SDS011;62850;42.428;25.618;2023-02-23T12:35:27;13.77;;;6.75;;
74415;SDS011;62850;42.428;25.618;2023-02-23T12:40:28;13.73;;;6.75;;
74415;SDS011;62850;42.428;25.618;2023-02-23T12:43:06;15.00;;;6.90;;
74415;SDS011;62850;42.428;25.618;2023-02-23T12:45:46;15.23;;;7.20;;
74415;SDS011;62850;42.428;25.618;2023-02-23T12:48:34;16.15;;;7.22;;
74415;SDS011;62850;42.428;25.618;2023-02-23T12:51:17;18.83;;;7.07;;
74415;SDS011;62850;42.428;25.618;2023-02-23T12:53:45;17.27;;;7.70;;
74415;SDS011;62850;42.428;25.618;2023-02-23T12:59:03;12.80;;;7.00;;
74415;SDS011;62850;42.428;25.618;2023-02-23T13:07:28;15.45;;;7.30;;
74415;SDS011;62850;42.428;25.618;2023-02-23T13:13:04;16.90;;;6.60;;
74415;SDS011;62850;42.428;25.618;2023-02-23T13:16:29;13.60;;;6.25;;
74415;SDS011;62850;42.428;25.618;2023-02-23T13:21:18;11.32;;;6.13;;
74415;SDS011;62850;42.428;25.618;2023-02-23T13:29:48;13.50;;;6.22;;
74415;SDS011;62850;42.428;25.618;2023-02-23T13:32:29;16.60;;;7.28;;
74415;SDS011;62850;42.428;25.618;2023-02-23T13:35:00;14.88;;;6.95;;
74415;SDS011;62850;42.428;25.618;2023-02-23T13:37:42;12.45;;;6.50;;
74415;SDS011;62850;42.428;25.618;2023-02-23T13:40:29;19.75;;;6.97;;
74415;SDS011;62850;42.428;25.618;2023-02-23T13:43:02;15.13;;;6.05;;
74415;SDS011;62850;42.428;25.618;2023-02-23T13:48:50;12.95;;;6.55;;
74415;SDS011;62850;42.428;25.618;2023-02-23T13:56:22;14.52;;;7.32;;
74415;SDS011;62850;42.428;25.618;2023-02-23T13:58:51;13.90;;;6.57;;
74415;SDS011;62850;42.428;25.618;2023-02-23T14:03:57;15.90;;;7.57;;
74415;SDS011;62850;42.428;25.618;2023-02-23T14:06:26;16.48;;;7.30;;
74415;SDS011;62850;42.428;25.618;2023-02-23T14:08:56;20.85;;;8.25;;
74415;SDS011;62850;42.428;25.618;2023-02-23T14:19:43;14.15;;;7.53;;
74415;SDS011;62850;42.428;25.618;2023-02-23T14:25:43;18.48;;;7.80;;
74415;SDS011;62850;42.428;25.618;2023-02-23T14:30:59;17.17;;;8.05;;
74415;SDS011;62850;42.428;25.618;2023-02-23T14:41:24;19.52;;;8.63;;
74415;SDS011;62850;42.428;25.618;2023-02-23T14:44:15;22.48;;;9.00;;
74415;SDS011;62850;42.428;25.618;2023-02-23T14:46:53;18.23;;;8.90;;
74415;SDS011;62850;42.428;25.618;2023-02-23T14:49:24;20.98;;;8.82;;
74415;SDS011;62850;42.428;25.618;2023-02-23T14:51:52;19.58;;;8.05;;
74415;SDS011;62850;42.428;25.618;2023-02-23T14:54:21;83.75;;;22.83;;
74415;SDS011;62850;42.428;25.618;2023-02-23T14:56:54;27.55;;;10.45;;
74415;SDS011;62850;42.428;25.618;2023-02-23T14:59:23;22.27;;;8.85;;
74415;SDS011;62850;42.428;25.618;2023-02-23T15:01:54;16.35;;;8.35;;
74415;SDS011;62850;42.428;25.618;2023-02-23T15:04:24;23.13;;;8.65;;
74415;SDS011;62850;42.428;25.618;2023-02-23T15:06:54;18.63;;;8.60;;
74415;SDS011;62850;42.428;25.618;2023-02-23T15:09:30;20.45;;;9.02;;
74415;SDS011;62850;42.428;25.618;2023-02-23T15:11:59;21.75;;;8.32;;
74415;SDS011;62850;42.428;25.618;2023-02-23T15:14:32;21.13;;;9.23;;
74415;SDS011;62850;42.428;25.618;2023-02-23T15:17:02;20.30;;;8.40;;
74415;SDS011;62850;42.428;25.618;2023-02-23T15:19:27;19.45;;;8.23;;
74415;SDS011;62850;42.428;25.618;2023-02-23T15:22:00;20.40;;;8.55;;
74415;SDS011;62850;42.428;25.618;2023-02-23T15:24:39;16.92;;;7.30;;
74415;SDS011;62850;42.428;25.618;2023-02-23T15:27:18;17.73;;;7.25;;
74415;SDS011;62850;42.428;25.618;2023-02-23T15:29:47;17.83;;;7.47;;
74415;SDS011;62850;42.428;25.618;2023-02-23T15:32:17;13.13;;;6.18;;
74415;SDS011;62850;42.428;25.618;2023-02-23T15:34:44;16.20;;;6.22;;
74415;SDS011;62850;42.428;25.618;2023-02-23T15:39:53;18.98;;;5.82;;
74415;SDS011;62850;42.428;25.618;2023-02-23T15:42:52;19.73;;;6.68;;
74415;SDS011;62850;42.428;25.618;2023-02-23T15:45:26;15.77;;;6.10;;
74415;SDS011;62850;42.428;25.618;2023-02-23T15:47:53;19.92;;;6.75;;
74415;SDS011;62850;42.428;25.618;2023-02-23T15:50:22;14.63;;;5.60;;
74415;SDS011;62850;42.428;25.618;2023-02-23T15:52:56;18.92;;;6.43;;
74415;SDS011;62850;42.428;25.618;2023-02-23T15:55:42;12.10;;;5.22;;
74415;SDS011;62850;42.428;25.618;2023-02-23T15:58:15;15.40;;;5.75;;
74415;SDS011;62850;42.428;25.618;2023-02-23T16:01:29;14.98;;;6.10;;
74415;SDS011;62850;42.428;25.618;2023-02-23T16:03:38;14.15;;;5.80;;
74415;SDS011;62850;42.428;25.618;2023-02-23T16:06:24;13.30;;;5.15;;
74415;SDS011;62850;42.428;25.618;2023-02-23T16:08:57;18.50;;;5.78;;
74415;SDS011;62850;42.428;25.618;2023-02-23T16:11:33;16.30;;;6.55;;
74415;SDS011;62850;42.428;25.618;2023-02-23T16:16:28;12.50;;;4.75;;
74415;SDS011;62850;42.428;25.618;2023-02-23T16:18:55;14.45;;;6.22;;
74415;SDS011;62850;42.428;25.618;2023-02-23T16:21:27;16.95;;;5.00;;
74415;SDS011;62850;42.428;25.618;2023-02-23T16:23:55;13.25;;;4.85;;
74415;SDS011;62850;42.428;25.618;2023-02-23T16:26:24;17.67;;;5.95;;
74415;SDS011;62850;42.428;25.618;2023-02-23T16:28:52;15.00;;;5.15;;
74415;SDS011;62850;42.428;25.618;2023-02-23T16:31:25;14.40;;;5.68;;
74415;SDS011;62850;42.428;25.618;2023-02-23T16:37:13;14.18;;;6.03;;
74415;SDS011;62850;42.428;25.618;2023-02-23T16:39:42;22.20;;;5.68;;
74415;SDS011;62850;42.428;25.618;2023-02-23T16:42:11;15.80;;;5.75;;
74415;SDS011;62850;42.428;25.618;2023-02-23T16:44:57;13.65;;;4.55;;
74415;SDS011;62850;42.428;25.618;2023-02-23T16:47:32;10.30;;;4.13;;
74415;SDS011;62850;42.428;25.618;2023-02-23T16:50:10;12.73;;;3.83;;
74415;SDS011;62850;42.428;25.618;2023-02-23T16:52:41;12.75;;;4.47;;
74415;SDS011;62850;42.428;25.618;2023-02-23T16:55:13;16.75;;;6.07;;
74415;SDS011;62850;42.428;25.618;2023-02-23T17:00:08;15.13;;;5.65;;
74415;SDS011;62850;42.428;25.618;2023-02-23T17:02:42;15.88;;;4.22;;
74415;SDS011;62850;42.428;25.618;2023-02-23T17:05:10;11.05;;;4.15;;
74415;SDS011;62850;42.428;25.618;2023-02-23T17:07:43;17.10;;;5.80;;
74415;SDS011;62850;42.428;25.618;2023-02-23T17:10:10;15.35;;;5.30;;
74415;SDS011;62850;42.428;25.618;2023-02-23T17:12:48;13.40;;;5.63;;
74415;SDS011;62850;42.428;25.618;2023-02-23T17:15:15;16.73;;;4.95;;
74415;SDS011;62850;42.428;25.618;2023-02-23T17:17:43;18.88;;;4.63;;
74415;SDS011;62850;42.428;25.618;2023-02-23T17:20:08;10.23;;;3.55;;
74415;SDS011;62850;42.428;25.618;2023-02-23T17:22:41;12.13;;;4.30;;
74415;SDS011;62850;42.428;25.618;2023-02-23T17:25:08;16.75;;;5.80;;
74415;SDS011;62850;42.428;25.618;2023-02-23T17:27:33;20.45;;;6.95;;
74415;SDS011;62850;42.428;25.618;2023-02-23T17:29:59;15.60;;;6.10;;
74415;SDS011;62850;42.428;25.618;2023-02-23T17:32:25;15.10;;;6.03;;